createdAt,value
2023-05-21T00:00:18.035Z,99282.44
2023-05-21T00:02:46.305Z,99285.47
2023-05-21T00:05:15.632Z,99287.72
2023-05-21T00:07:45.808Z,99278.78
2023-05-21T00:10:14.005Z,99281.19
2023-05-21T00:12:42.945Z,99279.72
2023-05-21T00:15:11.974Z,99277.00
2023-05-21T00:17:40.323Z,99275.84
2023-05-21T00:20:10.148Z,99284.94
2023-05-21T00:22:38.225Z,99276.88
2023-05-21T00:25:08.454Z,99274.72
2023-05-21T00:27:36.677Z,99273.66
2023-05-21T00:30:04.946Z,99270.63
2023-05-21T00:32:33.143Z,99266.91
2023-05-21T00:35:01.141Z,99263.84
2023-05-21T00:37:29.920Z,99261.56
2023-05-21T00:39:58.473Z,99259.19
2023-05-21T00:42:30.636Z,99252.50
2023-05-21T00:44:58.884Z,99251.25
2023-05-21T00:47:29.706Z,99250.69
2023-05-21T00:49:57.855Z,99247.72
2023-05-21T00:52:27.066Z,99243.75
2023-05-21T00:54:55.510Z,99238.53
2023-05-21T00:57:27.151Z,99240.25
2023-05-21T00:59:56.839Z,99236.63
2023-05-21T01:02:26.266Z,99240.03
2023-05-21T01:04:56.326Z,99234.47
2023-05-21T01:07:24.517Z,99236.19
2023-05-21T01:09:54.229Z,99235.97
2023-05-21T01:12:24.465Z,99233.78
2023-05-21T01:14:53.463Z,99243.41
2023-05-21T01:17:25.764Z,99233.56
2023-05-21T01:19:54.730Z,99233.44
2023-05-21T01:22:25.043Z,99231.84
2023-05-21T01:24:55.927Z,99227.09
2023-05-21T01:27:24.028Z,99226.31
2023-05-21T01:29:52.033Z,99233.66
2023-05-21T01:32:27.948Z,99230.13
2023-05-21T01:35:01.941Z,99237.19
2023-05-21T01:37:34.823Z,99231.16
2023-05-21T01:40:10.065Z,99228.66
2023-05-21T01:42:43.804Z,99225.38
2023-05-21T01:45:12.764Z,99228.75
2023-05-21T01:47:42.248Z,99217.09
2023-05-21T01:50:11.401Z,99213.91
2023-05-21T01:52:39.485Z,99213.13
2023-05-21T01:55:09.856Z,99218.09
2023-05-21T01:57:37.796Z,99225.47
2023-05-21T02:00:08.846Z,99227.03
2023-05-21T02:02:36.941Z,99227.41
2023-05-21T02:05:05.302Z,99216.53
2023-05-21T02:07:33.771Z,99213.03
2023-05-21T02:10:01.789Z,99215.28
2023-05-21T02:12:31.212Z,99209.84
2023-05-21T02:14:59.965Z,99201.22
2023-05-21T02:17:31.221Z,99208.91
2023-05-21T02:20:07.234Z,99213.44
2023-05-21T02:22:35.335Z,99210.72
2023-05-21T02:25:08.866Z,99206.44
2023-05-21T02:27:38.989Z,99202.44
2023-05-21T02:30:09.516Z,99205.47
2023-05-21T02:32:37.819Z,99213.16
2023-05-21T02:35:06.731Z,99222.44
2023-05-21T02:37:37.618Z,99234.75
2023-05-21T02:40:07.765Z,99233.50
2023-05-21T02:42:36.664Z,99236.91
2023-05-21T02:45:06.984Z,99226.22
2023-05-21T02:47:35.161Z,99218.75
2023-05-21T02:50:03.409Z,99220.56
2023-05-21T02:52:31.514Z,99227.09
2023-05-21T02:54:59.679Z,99207.66
2023-05-21T02:57:27.764Z,99219.97
2023-05-21T02:59:55.775Z,99223.34
2023-05-21T03:02:25.220Z,99226.06
2023-05-21T03:04:53.421Z,99224.03
2023-05-21T03:07:21.781Z,99230.25
2023-05-21T03:09:49.722Z,99226.88
2023-05-21T03:12:17.793Z,99223.47
2023-05-21T03:14:46.421Z,99221.66
2023-05-21T03:17:15.070Z,99224.19
2023-05-21T03:19:44.962Z,99221.16
2023-05-21T03:22:12.967Z,99213.59
2023-05-21T03:24:41.464Z,99215.94
2023-05-21T03:27:09.533Z,99216.41
2023-05-21T03:29:37.668Z,99221.66
2023-05-21T03:32:06.305Z,99223.38
2023-05-21T03:34:35.691Z,99217.41
2023-05-21T03:37:05.695Z,99217.31
2023-05-21T03:39:33.675Z,99228.41
2023-05-21T03:42:01.673Z,99216.22
2023-05-21T03:44:32.436Z,99240.09
2023-05-21T03:47:00.529Z,99234.56
2023-05-21T03:49:28.516Z,99236.19
2023-05-21T03:51:56.628Z,99234.13
2023-05-21T03:54:25.996Z,99229.84
2023-05-21T03:56:53.938Z,99232.22
2023-05-21T03:59:21.945Z,99236.06
2023-05-21T04:01:49.987Z,99239.53
2023-05-21T04:04:18.099Z,99245.44
2023-05-21T04:06:46.141Z,99241.09
2023-05-21T04:09:14.409Z,99243.03
2023-05-21T04:11:44.016Z,99248.06
2023-05-21T04:14:12.092Z,99243.00
2023-05-21T04:16:40.221Z,99241.81
2023-05-21T04:19:08.313Z,99235.63
2023-05-21T04:21:36.406Z,99235.63
2023-05-21T04:24:04.646Z,99235.69
2023-05-21T04:26:33.925Z,99226.38
2023-05-21T04:29:05.061Z,99231.72
2023-05-21T04:31:33.448Z,99225.34
2023-05-21T04:34:01.573Z,99229.84
2023-05-21T04:36:30.189Z,99228.84
2023-05-21T04:38:58.353Z,99222.84
2023-05-21T04:41:26.563Z,99223.16
2023-05-21T04:43:55.461Z,99225.06
2023-05-21T04:46:25.859Z,99223.06
2023-05-21T04:48:55.035Z,99221.06
2023-05-21T04:51:24.861Z,99221.41
2023-05-21T04:53:53.962Z,99223.25
2023-05-21T04:56:22.954Z,99228.56
2023-05-21T04:58:51.182Z,99217.84
2023-05-21T05:01:19.928Z,99214.13
2023-05-21T05:03:49.719Z,99222.44
2023-05-21T05:06:18.044Z,99217.03
2023-05-21T05:08:46.504Z,99215.00
2023-05-21T05:11:14.613Z,99222.00
2023-05-21T05:13:42.874Z,99211.06
2023-05-21T05:16:12.999Z,99212.72
2023-05-21T05:18:41.335Z,99215.59
2023-05-21T05:21:10.867Z,99217.97
2023-05-21T05:23:38.819Z,99209.13
2023-05-21T05:26:06.924Z,99216.16
2023-05-21T05:28:34.997Z,99208.72
2023-05-21T05:31:03.077Z,99203.25
2023-05-21T05:33:32.458Z,99207.16
2023-05-21T05:36:00.444Z,99212.31
2023-05-21T05:38:29.846Z,99207.75
2023-05-21T05:40:57.807Z,99205.84
2023-05-21T05:43:26.564Z,99211.50
2023-05-21T05:45:54.803Z,99200.31
2023-05-21T05:48:23.077Z,99210.69
2023-05-21T05:50:54.565Z,99204.16
2023-05-21T05:53:22.627Z,99212.47
2023-05-21T05:55:51.962Z,99209.09
2023-05-21T05:58:19.934Z,99205.72
2023-05-21T06:00:48.057Z,99211.69
2023-05-21T06:03:16.258Z,99211.34
2023-05-21T06:05:44.400Z,99205.13
2023-05-21T06:08:12.503Z,99207.22
2023-05-21T06:10:40.512Z,99213.53
2023-05-21T06:13:09.875Z,99206.22
2023-05-21T06:15:39.520Z,99215.00
2023-05-21T06:18:07.566Z,99211.19
2023-05-21T06:20:35.645Z,99211.72
2023-05-21T06:23:03.755Z,99201.22
2023-05-21T06:25:31.978Z,99207.56
2023-05-21T06:28:00.127Z,99202.50
2023-05-21T06:30:29.556Z,99199.47
2023-05-21T06:32:57.593Z,99189.31
2023-05-21T06:35:26.140Z,99197.22
2023-05-21T06:37:54.198Z,99183.09
2023-05-21T06:40:23.155Z,99183.53
2023-05-21T06:42:51.028Z,99183.97
2023-05-21T06:45:19.085Z,99176.94
2023-05-21T06:47:48.483Z,99173.84
2023-05-21T06:50:16.627Z,99173.88
2023-05-21T06:52:44.640Z,99173.88
2023-05-21T06:55:12.925Z,99165.66
2023-05-21T06:57:40.987Z,99171.16
2023-05-21T07:00:10.346Z,99168.47
2023-05-21T07:02:38.414Z,99167.31
2023-05-21T07:05:08.932Z,99162.59
2023-05-21T07:07:37.202Z,99163.81
2023-05-21T07:10:05.808Z,99161.47
2023-05-21T07:12:33.738Z,99165.41
2023-05-21T07:15:01.827Z,99154.00
2023-05-21T07:17:29.896Z,99146.50
2023-05-21T07:19:57.960Z,99150.47
2023-05-21T07:22:28.549Z,99141.81
2023-05-21T07:24:56.704Z,99135.53
2023-05-21T07:27:26.040Z,99135.53
2023-05-21T07:29:54.384Z,99138.28
2023-05-21T07:32:22.366Z,99141.44
2023-05-21T07:34:52.133Z,99141.81
2023-05-21T07:37:21.584Z,99138.66
2023-05-21T07:39:50.988Z,99139.81
2023-05-21T07:42:19.130Z,99132.31
2023-05-21T07:44:47.259Z,99134.25
2023-05-21T07:47:15.396Z,99142.13
2023-05-21T07:49:43.512Z,99135.44
2023-05-21T07:52:11.565Z,99135.78
2023-05-21T07:54:39.628Z,99135.38
2023-05-21T07:57:09.076Z,99127.47
2023-05-21T07:59:37.065Z,99130.59
2023-05-21T08:02:05.208Z,99124.28
2023-05-21T08:04:33.293Z,99123.50
2023-05-21T08:07:01.263Z,99116.41
2023-05-21T08:09:29.579Z,99121.91
2023-05-21T08:11:57.618Z,99121.84
2023-05-21T08:14:27.035Z,99120.69
2023-05-21T08:16:54.967Z,99117.88
2023-05-21T08:19:22.963Z,99118.97
2023-05-21T08:21:52.872Z,99114.19
2023-05-21T08:24:21.089Z,99114.66
2023-05-21T08:26:50.540Z,99111.09
2023-05-21T08:29:18.583Z,99113.06
2023-05-21T08:31:47.996Z,99109.13
2023-05-21T08:34:16.461Z,99111.44
2023-05-21T08:36:46.242Z,99103.56
2023-05-21T08:39:14.446Z,99103.13
2023-05-21T08:41:49.461Z,99096.81
2023-05-21T08:44:22.261Z,99097.09
2023-05-21T08:46:52.466Z,99100.53
2023-05-21T08:49:27.935Z,99098.13
2023-05-21T08:51:56.824Z,99098.06
2023-05-21T08:54:25.310Z,99094.47
2023-05-21T08:56:54.555Z,99100.81
2023-05-21T08:59:23.185Z,99097.25
2023-05-21T09:01:54.101Z,99086.78
2023-05-21T09:04:22.433Z,99087.84
2023-05-21T09:06:51.266Z,99082.31
2023-05-21T09:09:26.229Z,99087.78
2023-05-21T09:11:54.404Z,99087.72
2023-05-21T09:14:23.979Z,99088.84
2023-05-21T09:16:53.494Z,99088.28
2023-05-21T09:19:22.338Z,99084.94
2023-05-21T09:21:52.401Z,99090.72
2023-05-21T09:24:23.675Z,99079.16
2023-05-21T09:26:52.654Z,99075.13
2023-05-21T09:29:20.834Z,99076.84
2023-05-21T09:31:48.860Z,99072.91
2023-05-21T09:34:18.525Z,99078.75
2023-05-21T09:36:47.150Z,99084.81
2023-05-21T09:39:29.163Z,99075.84
2023-05-21T09:41:58.445Z,99078.19
2023-05-21T09:44:26.674Z,99077.63
2023-05-21T09:46:59.586Z,99069.81
2023-05-21T09:49:29.718Z,99066.56
2023-05-21T09:51:58.155Z,99070.69
2023-05-21T09:54:26.553Z,99071.00
2023-05-21T09:56:54.726Z,99062.41
2023-05-21T09:59:22.898Z,99060.88
2023-05-21T10:01:52.863Z,99060.25
2023-05-21T10:04:21.231Z,99053.91
2023-05-21T10:06:51.335Z,99057.47
2023-05-21T10:09:20.724Z,99048.16
2023-05-21T10:11:52.589Z,99047.31
2023-05-21T10:14:22.496Z,99048.72
2023-05-21T10:16:53.745Z,99044.88
2023-05-21T10:19:23.829Z,99049.50
2023-05-21T10:21:57.168Z,99040.47
2023-05-21T10:24:25.967Z,99051.47
2023-05-21T10:26:54.223Z,99037.84
2023-05-21T10:29:24.012Z,99027.75
2023-05-21T10:31:53.954Z,99020.66
2023-05-21T10:34:24.600Z,99023.47
2023-05-21T10:36:55.628Z,99024.56
2023-05-21T10:39:25.371Z,99014.69
2023-05-21T10:42:06.717Z,99012.69
2023-05-21T10:44:47.151Z,99003.13
2023-05-21T10:47:59.840Z,99014.69
2023-05-21T10:50:55.499Z,99011.16
2023-05-21T10:53:34.830Z,99016.56
2023-05-21T10:56:15.581Z,99011.63
2023-05-21T10:59:01.021Z,99007.84
2023-05-21T11:01:34.047Z,99014.72
2023-05-21T11:04:03.014Z,99009.97
2023-05-21T11:06:31.364Z,99003.13
2023-05-21T11:09:03.735Z,99006.00
2023-05-21T11:11:46.186Z,99000.94
2023-05-21T11:14:36.241Z,99000.00
2023-05-21T11:17:05.862Z,98998.94
2023-05-21T11:19:36.616Z,98988.88
2023-05-21T11:22:21.494Z,98985.03
2023-05-21T11:24:51.730Z,98988.41
2023-05-21T11:27:34.591Z,98988.16
2023-05-21T11:30:09.796Z,98977.19
2023-05-21T11:32:42.312Z,98972.97
2023-05-21T11:35:10.570Z,98953.69
2023-05-21T11:37:41.782Z,98967.81
2023-05-21T11:40:25.871Z,98965.84
2023-05-21T11:42:55.833Z,98962.28
2023-05-21T11:45:24.737Z,98969.53
2023-05-21T11:47:53.666Z,98963.09
2023-05-21T11:50:21.806Z,98968.75
2023-05-21T11:52:50.990Z,98957.59
2023-05-21T11:55:25.898Z,98951.22
2023-05-21T11:57:55.508Z,98954.44
2023-05-21T12:00:23.629Z,98943.31
2023-05-21T12:02:53.333Z,98936.94
2023-05-21T12:05:22.201Z,98934.47
2023-05-21T12:07:51.129Z,98936.19
2023-05-21T12:10:24.419Z,98916.13
2023-05-21T12:12:56.631Z,98915.34
2023-05-21T12:15:27.469Z,98909.88
2023-05-21T12:32:11.403Z,98900.50
2023-05-21T12:34:41.533Z,98894.03
2023-05-21T12:37:09.772Z,98902.25
2023-05-21T12:39:42.270Z,98905.84
2023-05-21T12:42:10.630Z,98909.16
2023-05-21T12:44:40.489Z,98917.69
2023-05-21T12:47:10.548Z,98919.56
2023-05-21T12:49:40.934Z,98928.94
2023-05-21T12:52:13.970Z,98931.75
2023-05-21T12:54:44.580Z,98934.13
2023-05-21T12:57:16.247Z,98949.97
2023-05-21T12:59:53.237Z,98954.75
2023-05-21T13:02:25.384Z,98972.06
2023-05-21T13:04:58.405Z,98970.91
2023-05-21T13:07:27.535Z,98983.56
2023-05-21T13:09:56.059Z,98986.63
2023-05-21T13:12:26.098Z,98991.25
2023-05-21T13:14:57.103Z,99000.13
2023-05-21T13:17:27.608Z,99040.91
2023-05-21T13:20:18.261Z,99061.16
2023-05-21T13:22:47.867Z,99060.38
2023-05-21T13:25:18.330Z,99058.81
2023-05-21T13:27:47.245Z,99062.47
2023-05-21T13:30:15.638Z,99061.94
2023-05-21T13:32:45.286Z,99069.41
2023-05-21T13:35:13.538Z,99081.22
2023-05-21T13:37:41.908Z,99093.88
2023-05-21T13:40:12.094Z,99089.50
2023-05-21T13:42:40.275Z,99083.44
2023-05-21T13:45:09.759Z,99074.44
2023-05-21T13:47:39.937Z,99085.53
2023-05-21T13:50:11.097Z,99087.78
2023-05-21T13:52:40.110Z,99088.59
2023-05-21T13:55:08.908Z,99090.94
2023-05-21T13:57:37.038Z,99091.63
2023-05-21T14:00:06.042Z,99085.13
2023-05-21T14:02:34.718Z,99083.31
2023-05-21T14:05:03.136Z,99076.72
2023-05-21T14:07:32.550Z,99077.59
2023-05-21T14:10:00.676Z,99073.31
2023-05-21T14:12:28.764Z,99062.72
2023-05-21T14:14:56.982Z,99056.41
2023-05-21T14:17:25.027Z,99052.03
2023-05-21T14:19:53.278Z,99034.56
2023-05-21T14:22:21.734Z,99022.25
2023-05-21T14:24:52.800Z,99018.13
2023-05-21T14:27:20.922Z,99010.16
2023-05-21T14:29:49.078Z,99017.88
2023-05-21T14:32:18.547Z,99004.53
2023-05-21T14:34:46.624Z,99008.34
2023-05-21T14:37:14.673Z,99009.97
2023-05-21T14:39:42.773Z,98993.34
2023-05-21T14:42:12.407Z,98979.78
2023-05-21T14:44:40.565Z,98981.22
2023-05-21T14:47:08.598Z,98980.22
2023-05-21T14:49:36.704Z,98970.22
2023-05-21T14:52:05.058Z,98975.09
2023-05-21T14:54:33.127Z,98966.25
2023-05-21T14:57:01.296Z,98967.59
2023-05-21T14:59:30.953Z,98977.31
2023-05-21T15:01:59.204Z,98978.13
2023-05-21T15:04:27.763Z,98985.63
2023-05-21T15:06:55.847Z,98980.09
2023-05-21T15:09:23.995Z,98972.53
2023-05-21T15:11:53.564Z,98979.06
2023-05-21T15:14:21.886Z,98970.03
2023-05-21T15:16:51.564Z,98970.41
2023-05-21T15:19:19.672Z,98961.28
2023-05-21T15:21:47.826Z,98946.19
2023-05-21T15:24:15.856Z,98955.13
2023-05-21T15:26:44.078Z,98948.59
2023-05-21T15:29:12.236Z,98944.16
2023-05-21T15:31:40.464Z,98946.56
2023-05-21T15:34:10.030Z,98956.72
2023-05-21T15:36:38.234Z,98961.47
2023-05-21T15:39:06.621Z,98954.47
2023-05-21T15:41:37.992Z,98956.47
2023-05-21T15:44:06.459Z,98957.53
2023-05-21T15:46:34.632Z,98945.53
2023-05-21T15:49:02.759Z,98940.97
2023-05-21T15:51:32.262Z,98936.09
2023-05-21T15:54:00.405Z,98935.63
2023-05-21T15:56:28.549Z,98923.72
2023-05-21T15:58:58.697Z,98930.75
2023-05-21T16:01:28.512Z,98945.47
2023-05-21T16:03:56.821Z,98945.41
2023-05-21T16:06:24.841Z,98947.22
2023-05-21T16:08:54.360Z,98951.13
2023-05-21T16:11:22.594Z,98949.59
2023-05-21T16:13:53.180Z,98949.28
2023-05-21T16:16:24.403Z,98938.50
2023-05-21T16:18:52.971Z,98935.66
2023-05-21T16:21:21.174Z,98936.22
2023-05-21T16:23:49.356Z,98933.09
2023-05-21T16:26:18.805Z,98920.69
2023-05-21T16:42:25.190Z,98903.34
2023-05-21T16:44:53.331Z,98901.28
2023-05-21T16:47:21.729Z,98909.19
2023-05-21T16:49:50.493Z,98910.94
2023-05-21T16:52:18.806Z,98905.28
2023-05-21T16:54:49.055Z,98904.47
2023-05-21T16:57:17.459Z,98908.84
2023-05-21T16:59:47.294Z,98911.09
2023-05-21T17:02:18.577Z,98916.06
2023-05-21T17:04:46.812Z,98922.81
2023-05-21T17:07:16.829Z,98925.59
2023-05-21T17:09:44.942Z,98929.94
2023-05-21T17:12:12.947Z,98929.50
2023-05-21T17:14:41.367Z,98927.19
2023-05-21T17:17:10.950Z,98926.66
2023-05-21T17:19:39.090Z,98927.38
2023-05-21T17:22:07.501Z,98924.91
2023-05-21T17:24:35.592Z,98930.66
2023-05-21T17:27:03.855Z,98929.22
2023-05-21T17:29:32.017Z,98941.84
2023-05-21T17:32:00.659Z,98941.59
2023-05-21T17:34:30.625Z,98937.22
2023-05-21T17:37:00.407Z,98949.75
2023-05-21T17:39:28.632Z,98960.56
2023-05-21T17:41:57.256Z,98970.59
2023-05-21T17:44:25.495Z,98969.53
2023-05-21T17:46:53.659Z,98973.91
2023-05-21T17:49:21.744Z,98962.94
2023-05-21T17:51:51.469Z,98972.44
2023-05-21T17:54:21.295Z,98964.94
2023-05-21T17:56:49.326Z,98958.69
2023-05-21T17:59:17.700Z,98959.84
2023-05-21T18:01:45.765Z,98946.47
2023-05-21T18:04:13.842Z,98942.47
2023-05-21T18:06:42.046Z,98953.00
2023-05-21T18:09:14.345Z,98955.31
2023-05-21T18:11:44.741Z,98953.63
2023-05-21T18:14:12.891Z,98955.91
2023-05-21T18:16:41.580Z,98958.91
2023-05-21T18:19:09.857Z,98954.09
2023-05-21T18:21:38.988Z,98959.81
2023-05-21T18:24:07.997Z,98951.81
2023-05-21T18:26:37.568Z,98945.34
2023-05-21T18:29:05.730Z,98954.16
2023-05-21T18:31:34.023Z,98956.00
2023-05-21T18:34:02.262Z,98960.22
2023-05-21T18:36:30.316Z,98948.75
2023-05-21T18:38:58.419Z,98951.78
2023-05-21T18:41:26.617Z,98952.06
2023-05-21T18:43:56.075Z,98956.66
2023-05-21T18:46:24.166Z,98965.13
2023-05-21T18:48:52.232Z,98961.13
2023-05-21T18:51:20.340Z,98964.09
2023-05-21T18:53:49.402Z,98966.72
2023-05-21T18:56:17.917Z,98958.44
2023-05-21T18:58:46.048Z,98963.44
2023-05-21T19:01:15.556Z,98955.19
2023-05-21T19:03:43.482Z,98970.72
2023-05-21T19:06:11.592Z,98970.63
2023-05-21T19:08:43.558Z,98973.25
2023-05-21T19:11:12.288Z,98966.50
2023-05-21T19:13:40.478Z,98971.13
2023-05-21T19:16:13.888Z,98970.28
2023-05-21T19:18:43.895Z,98975.66
2023-05-21T19:21:12.114Z,98978.25
2023-05-21T19:23:51.991Z,98976.59
2023-05-21T19:26:21.714Z,98973.81
2023-05-21T19:28:53.424Z,98983.16
2023-05-21T19:31:22.979Z,98986.25
2023-05-21T19:33:52.928Z,98990.94
2023-05-21T19:36:21.969Z,98988.19
2023-05-21T19:38:51.032Z,98985.41
2023-05-21T19:41:19.722Z,98982.94
2023-05-21T19:43:48.096Z,98992.31
2023-05-21T19:46:19.743Z,98989.13
2023-05-21T19:48:53.442Z,98989.44
2023-05-21T19:51:21.621Z,98994.84
2023-05-21T19:53:49.650Z,98987.66
2023-05-21T19:56:17.825Z,98987.16
2023-05-21T19:58:48.126Z,98997.59
2023-05-21T20:01:17.827Z,98999.75
2023-05-21T20:03:46.291Z,98996.44
2023-05-21T20:06:19.039Z,98985.41
2023-05-21T20:08:47.446Z,98984.88
2023-05-21T20:11:15.559Z,98988.69
2023-05-21T20:13:48.544Z,98986.22
2023-05-21T20:16:18.302Z,98985.72
2023-05-21T20:18:47.375Z,98990.78
2023-05-21T20:21:18.585Z,98989.47
2023-05-21T20:23:47.146Z,98987.81
2023-05-21T20:26:15.576Z,98978.69
2023-05-21T20:28:44.075Z,98982.03
2023-05-21T20:31:12.351Z,98990.91
2023-05-21T20:33:41.204Z,99004.47
2023-05-21T20:36:09.644Z,98999.38
2023-05-21T20:38:42.100Z,99000.84
2023-05-21T20:41:10.428Z,99007.47
2023-05-21T20:43:38.515Z,99006.16
2023-05-21T20:46:06.536Z,99012.81
2023-05-21T20:48:35.293Z,99030.41
2023-05-21T20:51:04.680Z,99060.47
2023-05-21T20:53:33.868Z,99064.19
2023-05-21T20:56:07.147Z,99060.56
2023-05-21T20:58:35.211Z,99052.91
2023-05-21T21:01:03.940Z,99056.59
2023-05-21T21:03:34.094Z,99057.91
2023-05-21T21:06:03.311Z,99057.97
2023-05-21T21:08:31.476Z,99047.44
2023-05-21T21:10:59.363Z,99052.81
2023-05-21T21:13:28.737Z,99051.59
2023-05-21T21:15:56.753Z,99057.03
2023-05-21T21:18:24.754Z,99052.38
2023-05-21T21:20:52.808Z,99047.19
2023-05-21T21:23:20.746Z,99028.75
2023-05-21T21:25:48.806Z,99031.22
2023-05-21T21:28:17.033Z,99019.59
2023-05-21T21:30:46.894Z,99018.44
2023-05-21T21:33:16.391Z,99019.59
2023-05-21T21:35:44.568Z,99026.97
2023-05-21T21:38:12.525Z,99040.97
2023-05-21T21:40:41.180Z,99030.06
2023-05-21T21:43:09.551Z,99053.88
2023-05-21T21:45:37.690Z,99067.25
2023-05-21T21:48:07.942Z,99055.19
2023-05-21T21:50:36.272Z,99045.34
2023-05-21T21:53:05.997Z,99060.75
2023-05-21T21:55:34.465Z,99062.25
2023-05-21T21:58:02.834Z,99062.94
2023-05-21T22:00:30.937Z,99063.66
2023-05-21T22:02:58.991Z,99061.28
2023-05-21T22:05:30.828Z,99063.13
2023-05-21T22:07:58.975Z,99075.84
2023-05-21T22:10:27.148Z,99079.66
2023-05-21T22:12:55.200Z,99077.88
2023-05-21T22:15:27.490Z,99086.94
2023-05-21T22:17:56.090Z,99080.16
2023-05-21T22:20:26.041Z,99071.09
2023-05-21T22:22:55.574Z,99063.19
2023-05-21T22:25:23.787Z,99057.56
2023-05-21T22:27:52.258Z,99065.06
2023-05-21T22:30:20.892Z,99070.34
2023-05-21T22:32:49.129Z,99069.03
2023-05-21T22:35:17.387Z,99073.53
2023-05-21T22:37:45.585Z,99079.25
2023-05-21T22:40:15.463Z,99068.13
2023-05-21T22:42:43.465Z,99070.41
2023-05-21T22:45:12.523Z,99071.09
2023-05-21T22:47:40.829Z,99062.06
2023-05-21T22:50:10.208Z,99057.75
2023-05-21T22:52:38.750Z,99073.19
2023-05-21T22:55:09.709Z,99068.44
2023-05-21T22:57:39.230Z,99065.94
2023-05-21T23:00:10.924Z,99061.09
2023-05-21T23:02:39.226Z,99061.44
2023-05-21T23:05:07.760Z,99056.22
2023-05-21T23:07:35.910Z,99057.59
2023-05-21T23:10:04.315Z,99061.38
2023-05-21T23:12:32.495Z,99060.81
2023-05-21T23:15:02.218Z,99061.47
2023-05-21T23:17:30.823Z,99071.13
2023-05-21T23:19:59.532Z,99061.19
2023-05-21T23:22:27.735Z,99060.94
2023-05-21T23:24:55.867Z,99057.75
2023-05-21T23:27:24.093Z,99063.47
2023-05-21T23:29:52.393Z,99069.13
2023-05-21T23:32:23.294Z,99066.72
2023-05-21T23:34:51.331Z,99064.00
2023-05-21T23:37:20.942Z,99062.75
2023-05-21T23:39:49.871Z,99060.41
2023-05-21T23:42:18.285Z,99064.59
2023-05-21T23:44:46.820Z,99055.97
2023-05-21T23:47:14.958Z,99059.72
2023-05-21T23:49:44.329Z,99058.78
2023-05-21T23:52:13.609Z,99059.34
2023-05-21T23:54:41.846Z,99056.06
2023-05-21T23:57:09.955Z,99056.28
2023-05-21T23:59:38.311Z,99060.81
